sensor_id;sensor_type;location;lat;lon;timestamp;pressure;altitude;pressure_sealevel;temperature;humidity
35224;BME280;21367;51.930;8.112;2023-04-27T00:05:01;101373.41;;;6.52;80.15
35224;BME280;21367;51.930;8.112;2023-04-27T00:10:05;101377.47;;;6.36;81.03
35224;BME280;21367;51.930;8.112;2023-04-27T00:15:09;101384.78;;;6.32;80.99
35224;BME280;21367;51.930;8.112;2023-04-27T00:20:15;101382.47;;;6.23;81.72
35224;BME280;21367;51.930;8.112;2023-04-27T00:25:20;101384.38;;;6.14;82.28
35224;BME280;21367;51.930;8.112;2023-04-27T00:30:23;101377.97;;;6.07;82.22
35224;BME280;21367;51.930;8.112;2023-04-27T00:35:29;101383.50;;;6.13;81.38
35224;BME280;21367;51.930;8.112;2023-04-27T00:40:34;101378.63;;;6.05;82.13
35224;BME280;21367;51.930;8.112;2023-04-27T00:45:39;101384.06;;;6.09;82.30
35224;BME280;21367;51.930;8.112;2023-04-27T00:50:46;101381.88;;;6.02;83.06
35224;BME280;21367;51.930;8.112;2023-04-27T00:55:49;101388.41;;;5.98;83.33
35224;BME280;21367;51.930;8.112;2023-04-27T01:00:55;101400.13;;;5.85;83.30
35224;BME280;21367;51.930;8.112;2023-04-27T01:06:02;101397.59;;;5.85;83.40
35224;BME280;21367;51.930;8.112;2023-04-27T01:11:06;101409.44;;;5.72;83.46
35224;BME280;21367;51.930;8.112;2023-04-27T01:16:09;101409.13;;;5.79;82.87
35224;BME280;21367;51.930;8.112;2023-04-27T01:21:15;101414.25;;;5.68;82.31
35224;BME280;21367;51.930;8.112;2023-04-27T01:26:21;101427.28;;;5.61;82.62
35224;BME280;21367;51.930;8.112;2023-04-27T01:31:25;101422.63;;;5.43;83.80
35224;BME280;21367;51.930;8.112;2023-04-27T01:36:28;101426.47;;;5.26;84.13
35224;BME280;21367;51.930;8.112;2023-04-27T01:41:34;101436.22;;;5.20;84.19
35224;BME280;21367;51.930;8.112;2023-04-27T01:46:37;101434.50;;;5.09;84.75
35224;BME280;21367;51.930;8.112;2023-04-27T01:51:41;101451.88;;;5.03;84.88
35224;BME280;21367;51.930;8.112;2023-04-27T01:56:47;101447.09;;;4.96;85.42
35224;BME280;21367;51.930;8.112;2023-04-27T02:01:51;101449.03;;;4.88;85.42
35224;BME280;21367;51.930;8.112;2023-04-27T02:06:56;101446.50;;;4.66;86.11
35224;BME280;21367;51.930;8.112;2023-04-27T02:12:02;101446.22;;;4.73;85.92
35224;BME280;21367;51.930;8.112;2023-04-27T02:17:06;101457.09;;;4.60;86.21
35224;BME280;21367;51.930;8.112;2023-04-27T02:22:09;101454.84;;;4.53;86.26
35224;BME280;21367;51.930;8.112;2023-04-27T02:27:15;101455.19;;;4.36;86.32
35224;BME280;21367;51.930;8.112;2023-04-27T02:32:19;101466.75;;;4.32;87.15
35224;BME280;21367;51.930;8.112;2023-04-27T02:37:22;101462.78;;;4.14;87.25
35224;BME280;21367;51.930;8.112;2023-04-27T02:42:28;101466.06;;;4.13;87.23
35224;BME280;21367;51.930;8.112;2023-04-27T02:47:32;101460.78;;;4.00;87.35
35224;BME280;21367;51.930;8.112;2023-04-27T02:52:35;101464.59;;;3.94;87.24
35224;BME280;21367;51.930;8.112;2023-04-27T02:57:41;101461.44;;;3.87;87.88
35224;BME280;21367;51.930;8.112;2023-04-27T03:02:45;101451.81;;;3.83;87.63
35224;BME280;21367;51.930;8.112;2023-04-27T03:07:48;101446.97;;;3.76;87.12
35224;BME280;21367;51.930;8.112;2023-04-27T03:12:54;101440.41;;;3.67;87.19
35224;BME280;21367;51.930;8.112;2023-04-27T03:17:57;101437.47;;;3.63;86.84
35224;BME280;21367;51.930;8.112;2023-04-27T03:23:01;101439.00;;;3.51;87.71
35224;BME280;21367;51.930;8.112;2023-04-27T03:28:08;101431.66;;;3.33;87.95
35224;BME280;21367;51.930;8.112;2023-04-27T03:33:12;101435.84;;;3.43;87.86
35224;BME280;21367;51.930;8.112;2023-04-27T03:38:15;101435.09;;;3.34;88.04
35224;BME280;21367;51.930;8.112;2023-04-27T03:43:21;101429.91;;;3.32;87.74
35224;BME280;21367;51.930;8.112;2023-04-27T03:48:25;101436.09;;;3.25;88.15
35224;BME280;21367;51.930;8.112;2023-04-27T03:53:29;101443.88;;;3.17;87.92
35224;BME280;21367;51.930;8.112;2023-04-27T03:58:35;101438.53;;;3.14;87.96
35224;BME280;21367;51.930;8.112;2023-04-27T04:04:05;101442.22;;;3.07;88.39
35224;BME280;21367;51.930;8.112;2023-04-27T04:09:08;101454.66;;;3.04;88.82
35224;BME280;21367;51.930;8.112;2023-04-27T04:14:16;101463.16;;;3.05;88.72
35224;BME280;21367;51.930;8.112;2023-04-27T04:19:19;101459.16;;;2.88;89.66
35224;BME280;21367;51.930;8.112;2023-04-27T04:24:22;101473.03;;;3.01;89.17
35224;BME280;21367;51.930;8.112;2023-04-27T04:29:29;101479.47;;;2.88;89.14
35224;BME280;21367;51.930;8.112;2023-04-27T04:34:32;101480.13;;;2.85;89.23
35224;BME280;21367;51.930;8.112;2023-04-27T04:39:36;101480.88;;;2.94;88.98
35224;BME280;21367;51.930;8.112;2023-04-27T04:44:44;101480.53;;;3.00;89.05
35224;BME280;21367;51.930;8.112;2023-04-27T04:49:48;101490.69;;;3.00;88.93
35224;BME280;21367;51.930;8.112;2023-04-27T04:54:51;101480.78;;;3.13;88.30
35224;BME280;21367;51.930;8.112;2023-04-27T04:59:57;101499.19;;;3.00;88.74
35224;BME280;21367;51.930;8.112;2023-04-27T05:05:01;101492.75;;;3.14;88.86
35224;BME280;21367;51.930;8.112;2023-04-27T05:10:04;101495.94;;;3.32;88.98
35224;BME280;21367;51.930;8.112;2023-04-27T05:15:11;101496.44;;;3.28;88.64
35224;BME280;21367;51.930;8.112;2023-04-27T05:20:15;101500.50;;;3.36;89.26
35224;BME280;21367;51.930;8.112;2023-04-27T05:25:18;101503.94;;;3.47;89.21
35224;BME280;21367;51.930;8.112;2023-04-27T05:30:24;101504.31;;;3.62;89.39
35224;BME280;21367;51.930;8.112;2023-04-27T05:35:28;101509.75;;;3.87;88.63
35224;BME280;21367;51.930;8.112;2023-04-27T05:40:31;101511.41;;;3.86;88.88
35224;BME280;21367;51.930;8.112;2023-04-27T05:45:40;101511.47;;;4.18;88.75
35224;BME280;21367;51.930;8.112;2023-04-27T05:50:43;101524.97;;;4.17;88.59
35224;BME280;21367;51.930;8.112;2023-04-27T05:55:47;101527.88;;;4.22;87.87
35224;BME280;21367;51.930;8.112;2023-04-27T06:00:53;101526.19;;;3.70;89.66
35224;BME280;21367;51.930;8.112;2023-04-27T06:05:57;101530.47;;;4.02;89.38
35224;BME280;21367;51.930;8.112;2023-04-27T06:11:00;101526.84;;;4.30;88.10
35224;BME280;21367;51.930;8.112;2023-04-27T06:16:08;101525.34;;;4.12;88.85
35224;BME280;21367;51.930;8.112;2023-04-27T06:21:11;101530.69;;;4.15;88.66
35224;BME280;21367;51.930;8.112;2023-04-27T06:26:15;101529.78;;;4.25;87.17
35224;BME280;21367;51.930;8.112;2023-04-27T06:31:21;101535.06;;;4.48;87.38
35224;BME280;21367;51.930;8.112;2023-04-27T06:36:24;101531.97;;;5.06;84.76
35224;BME280;21367;51.930;8.112;2023-04-27T06:41:28;101539.25;;;5.24;82.70
35224;BME280;21367;51.930;8.112;2023-04-27T06:46:36;101544.78;;;5.18;81.14
35224;BME280;21367;51.930;8.112;2023-04-27T06:51:39;101542.59;;;5.56;79.89
35224;BME280;21367;51.930;8.112;2023-04-27T06:56:43;101552.47;;;5.30;78.09
35224;BME280;21367;51.930;8.112;2023-04-27T07:01:49;101546.34;;;5.50;77.69
35224;BME280;21367;51.930;8.112;2023-04-27T07:06:53;101532.09;;;5.75;77.46
35224;BME280;21367;51.930;8.112;2023-04-27T07:11:56;101534.50;;;5.62;80.21
35224;BME280;21367;51.930;8.112;2023-04-27T07:17:03;101529.63;;;6.11;78.17
35224;BME280;21367;51.930;8.112;2023-04-27T07:22:06;101535.06;;;6.03;77.62
35224;BME280;21367;51.930;8.112;2023-04-27T07:27:11;101530.63;;;6.60;75.27
35224;BME280;21367;51.930;8.112;2023-04-27T07:32:17;101528.41;;;6.64;75.57
35224;BME280;21367;51.930;8.112;2023-04-27T07:37:21;101529.94;;;6.62;74.59
35224;BME280;21367;51.930;8.112;2023-04-27T07:42:24;101522.91;;;6.83;72.73
35224;BME280;21367;51.930;8.112;2023-04-27T07:47:30;101517.03;;;6.84;72.26
35224;BME280;21367;51.930;8.112;2023-04-27T07:52:34;101513.25;;;7.16;72.20
35224;BME280;21367;51.930;8.112;2023-04-27T07:57:38;101515.63;;;7.01;70.58
35224;BME280;21367;51.930;8.112;2023-04-27T08:02:44;101513.28;;;7.54;68.54
35224;BME280;21367;51.930;8.112;2023-04-27T08:07:48;101504.00;;;7.81;68.08
35224;BME280;21367;51.930;8.112;2023-04-27T08:12:52;101512.56;;;7.82;67.13
35224;BME280;21367;51.930;8.112;2023-04-27T08:17:58;101511.53;;;8.18;68.26
35224;BME280;21367;51.930;8.112;2023-04-27T08:23:01;101520.16;;;8.33;66.26
35224;BME280;21367;51.930;8.112;2023-04-27T08:28:05;101521.19;;;8.49;65.34
35224;BME280;21367;51.930;8.112;2023-04-27T08:33:11;101519.41;;;8.21;63.98
35224;BME280;21367;51.930;8.112;2023-04-27T08:38:14;101524.81;;;8.26;62.29
35224;BME280;21367;51.930;8.112;2023-04-27T08:43:18;101522.03;;;8.76;62.77
35224;BME280;21367;51.930;8.112;2023-04-27T08:48:24;101513.81;;;8.95;64.09
35224;BME280;21367;51.930;8.112;2023-04-27T08:53:27;101511.66;;;9.16;63.15
35224;BME280;21367;51.930;8.112;2023-04-27T08:58:37;101505.78;;;9.32;58.34
35224;BME280;21367;51.930;8.112;2023-04-27T09:03:43;101508.78;;;9.24;58.31
35224;BME280;21367;51.930;8.112;2023-04-27T09:08:47;101503.50;;;9.81;56.68
35224;BME280;21367;51.930;8.112;2023-04-27T09:13:50;101512.38;;;9.56;60.79
35224;BME280;21367;51.930;8.112;2023-04-27T09:18:56;101496.44;;;10.06;54.87
35224;BME280;21367;51.930;8.112;2023-04-27T09:24:08;101500.13;;;10.11;59.69
35224;BME280;21367;51.930;8.112;2023-04-27T09:29:11;101497.78;;;9.85;55.27
35224;BME280;21367;51.930;8.112;2023-04-27T09:34:18;101504.41;;;10.40;54.56
35224;BME280;21367;51.930;8.112;2023-04-27T09:39:21;101513.34;;;10.32;54.24
35224;BME280;21367;51.930;8.112;2023-04-27T09:44:25;101501.72;;;10.70;51.24
35224;BME280;21367;51.930;8.112;2023-04-27T09:49:31;101495.88;;;10.89;51.10
35224;BME280;21367;51.930;8.112;2023-04-27T09:54:36;101476.03;;;11.19;50.30
35224;BME280;21367;51.930;8.112;2023-04-27T09:59:51;101468.56;;;11.58;54.48
35224;BME280;21367;51.930;8.112;2023-04-27T10:05:12;101473.16;;;11.64;53.87
35224;BME280;21367;51.930;8.112;2023-04-27T10:10:18;101460.88;;;11.76;51.25
35224;BME280;21367;51.930;8.112;2023-04-27T10:15:24;101453.91;;;12.45;50.95
35224;BME280;21367;51.930;8.112;2023-04-27T10:20:31;101461.53;;;12.61;49.33
35224;BME280;21367;51.930;8.112;2023-04-27T10:25:38;101457.06;;;12.77;51.78
35224;BME280;21367;51.930;8.112;2023-04-27T10:30:42;101454.53;;;13.77;50.25
35224;BME280;21367;51.930;8.112;2023-04-27T10:35:57;101452.16;;;14.04;44.78
35224;BME280;21367;51.930;8.112;2023-04-27T10:41:01;101443.44;;;14.45;46.52
35224;BME280;21367;51.930;8.112;2023-04-27T10:46:08;101439.53;;;15.53;42.85
35224;BME280;21367;51.930;8.112;2023-04-27T10:51:16;101440.25;;;14.51;43.76
35224;BME280;21367;51.930;8.112;2023-04-27T10:56:20;101432.66;;;14.12;47.23
35224;BME280;21367;51.930;8.112;2023-04-27T11:01:24;101425.50;;;14.96;45.94
35224;BME280;21367;51.930;8.112;2023-04-27T11:06:31;101419.03;;;16.13;43.97
35224;BME280;21367;51.930;8.112;2023-04-27T11:11:36;101418.69;;;15.73;45.08
35224;BME280;21367;51.930;8.112;2023-04-27T11:16:44;101407.50;;;15.50;42.31
35224;BME280;21367;51.930;8.112;2023-04-27T11:21:50;101395.06;;;17.45;39.20
35224;BME280;21367;51.930;8.112;2023-04-27T11:26:54;101398.75;;;15.47;43.27
35224;BME280;21367;51.930;8.112;2023-04-27T11:31:57;101405.47;;;15.93;43.26
35224;BME280;21367;51.930;8.112;2023-04-27T11:37:03;101402.47;;;12.48;47.03
35224;BME280;21367;51.930;8.112;2023-04-27T11:42:14;101400.00;;;13.09;46.91
35224;BME280;21367;51.930;8.112;2023-04-27T11:47:18;101402.88;;;14.44;45.39
35224;BME280;21367;51.930;8.112;2023-04-27T11:52:26;101395.56;;;16.37;43.64
35224;BME280;21367;51.930;8.112;2023-04-27T11:57:32;101389.84;;;17.44;38.53
35224;BME280;21367;51.930;8.112;2023-04-27T12:02:36;101388.66;;;16.68;40.65
35224;BME280;21367;51.930;8.112;2023-04-27T12:07:42;101402.03;;;16.51;41.75
35224;BME280;21367;51.930;8.112;2023-04-27T12:12:45;101396.16;;;17.20;40.64
35224;BME280;21367;51.930;8.112;2023-04-27T12:17:49;101392.88;;;18.77;37.33
35224;BME280;21367;51.930;8.112;2023-04-27T12:22:55;101385.44;;;18.99;37.29
35224;BME280;21367;51.930;8.112;2023-04-27T12:27:58;101376.66;;;18.49;38.24
35224;BME280;21367;51.930;8.112;2023-04-27T12:33:02;101376.81;;;20.77;36.15
35224;BME280;21367;51.930;8.112;2023-04-27T12:38:12;101371.91;;;21.07;33.59
35224;BME280;21367;51.930;8.112;2023-04-27T12:43:16;101368.06;;;18.54;37.64
35224;BME280;21367;51.930;8.112;2023-04-27T12:48:19;101364.19;;;18.76;39.95
35224;BME280;21367;51.930;8.112;2023-04-27T12:53:25;101377.44;;;18.04;39.74
35224;BME280;21367;51.930;8.112;2023-04-27T12:58:30;101366.34;;;18.12;36.01
35224;BME280;21367;51.930;8.112;2023-04-27T13:03:33;101365.84;;;19.19;36.82
35224;BME280;21367;51.930;8.112;2023-04-27T13:08:40;101365.72;;;18.66;34.42
35224;BME280;21367;51.930;8.112;2023-04-27T13:13:43;101362.31;;;20.28;33.88
35224;BME280;21367;51.930;8.112;2023-04-27T13:18:47;101363.88;;;20.85;31.70
35224;BME280;21367;51.930;8.112;2023-04-27T13:23:54;101360.66;;;19.21;35.02
35224;BME280;21367;51.930;8.112;2023-04-27T13:28:57;101340.16;;;20.65;33.82
35224;BME280;21367;51.930;8.112;2023-04-27T13:34:02;101343.84;;;16.43;39.59
35224;BME280;21367;51.930;8.112;2023-04-27T13:39:09;101349.81;;;19.46;37.57
35224;BME280;21367;51.930;8.112;2023-04-27T13:44:12;101335.13;;;20.85;34.39
35224;BME280;21367;51.930;8.112;2023-04-27T13:49:16;101339.22;;;18.87;37.46
35224;BME280;21367;51.930;8.112;2023-04-27T13:54:22;101320.66;;;19.72;34.35
35224;BME280;21367;51.930;8.112;2023-04-27T13:59:26;101322.03;;;20.09;34.91
35224;BME280;21367;51.930;8.112;2023-04-27T14:04:30;101316.38;;;18.28;37.75
35224;BME280;21367;51.930;8.112;2023-04-27T14:09:36;101309.34;;;19.71;33.95
35224;BME280;21367;51.930;8.112;2023-04-27T14:14:40;101305.59;;;20.94;32.73
35224;BME280;21367;51.930;8.112;2023-04-27T14:19:44;101307.00;;;17.95;36.70
35224;BME280;21367;51.930;8.112;2023-04-27T14:24:50;101297.75;;;20.95;32.71
35224;BME280;21367;51.930;8.112;2023-04-27T14:29:55;101295.66;;;17.92;36.77
35224;BME280;21367;51.930;8.112;2023-04-27T14:34:59;101294.25;;;18.50;34.88
35224;BME280;21367;51.930;8.112;2023-04-27T14:40:07;101284.97;;;20.39;33.76
35224;BME280;21367;51.930;8.112;2023-04-27T14:45:10;101281.13;;;17.26;36.94
35224;BME280;21367;51.930;8.112;2023-04-27T14:50:15;101279.03;;;19.78;32.07
35224;BME280;21367;51.930;8.112;2023-04-27T14:55:21;101279.84;;;19.21;34.21
35224;BME280;21367;51.930;8.112;2023-04-27T15:00:25;101276.81;;;18.02;35.57
35224;BME280;21367;51.930;8.112;2023-04-27T15:05:28;101278.34;;;18.36;35.53
35224;BME280;21367;51.930;8.112;2023-04-27T15:10:34;101276.22;;;18.17;36.90
35224;BME280;21367;51.930;8.112;2023-04-27T15:15:38;101274.03;;;17.19;36.23
35224;BME280;21367;51.930;8.112;2023-04-27T15:20:48;101279.88;;;16.75;36.96
35224;BME280;21367;51.930;8.112;2023-04-27T15:25:56;101263.38;;;17.44;35.42
35224;BME280;21367;51.930;8.112;2023-04-27T15:31:00;101257.50;;;19.35;33.46
35224;BME280;21367;51.930;8.112;2023-04-27T15:36:04;101254.63;;;17.41;37.33
35224;BME280;21367;51.930;8.112;2023-04-27T15:41:10;101243.03;;;15.65;39.78
35224;BME280;21367;51.930;8.112;2023-04-27T15:46:13;101243.41;;;16.07;37.18
35224;BME280;21367;51.930;8.112;2023-04-27T15:51:17;101237.06;;;15.98;39.19
35224;BME280;21367;51.930;8.112;2023-04-27T15:56:23;101226.59;;;15.36;39.60
35224;BME280;21367;51.930;8.112;2023-04-27T16:01:27;101229.78;;;15.27;39.44
35224;BME280;21367;51.930;8.112;2023-04-27T16:06:31;101230.13;;;15.11;42.34
35224;BME280;21367;51.930;8.112;2023-04-27T16:11:38;101222.50;;;15.15;43.34
35224;BME280;21367;51.930;8.112;2023-04-27T16:16:42;101227.56;;;14.60;43.82
35224;BME280;21367;51.930;8.112;2023-04-27T16:21:45;101227.81;;;14.42;44.82
35224;BME280;21367;51.930;8.112;2023-04-27T16:26:51;101213.22;;;15.79;42.10
35224;BME280;21367;51.930;8.112;2023-04-27T16:31:55;101211.44;;;14.94;42.90
35224;BME280;21367;51.930;8.112;2023-04-27T16:36:58;101196.28;;;15.62;42.39
35224;BME280;21367;51.930;8.112;2023-04-27T16:42:05;101193.25;;;14.40;44.09
35224;BME280;21367;51.930;8.112;2023-04-27T16:47:09;101187.19;;;14.90;44.13
35224;BME280;21367;51.930;8.112;2023-04-27T16:52:12;101198.09;;;14.81;44.15
35224;BME280;21367;51.930;8.112;2023-04-27T16:57:19;101195.53;;;15.37;42.73
35224;BME280;21367;51.930;8.112;2023-04-27T17:02:22;101188.19;;;15.51;41.98
35224;BME280;21367;51.930;8.112;2023-04-27T17:07:26;101189.28;;;15.02;43.81
35224;BME280;21367;51.930;8.112;2023-04-27T17:12:38;101182.59;;;14.56;44.91
35224;BME280;21367;51.930;8.112;2023-04-27T17:17:41;101183.53;;;14.08;47.34
35224;BME280;21367;51.930;8.112;2023-04-27T17:22:44;101172.47;;;14.12;46.05
35224;BME280;21367;51.930;8.112;2023-04-27T17:27:51;101171.56;;;13.86;46.25
35224;BME280;21367;51.930;8.112;2023-04-27T17:32:54;101171.63;;;13.65;47.82
35224;BME280;21367;51.930;8.112;2023-04-27T17:37:58;101170.59;;;13.38;47.74
35224;BME280;21367;51.930;8.112;2023-04-27T17:43:04;101171.56;;;13.19;48.56
35224;BME280;21367;51.930;8.112;2023-04-27T17:48:08;101167.69;;;13.75;47.76
35224;BME280;21367;51.930;8.112;2023-04-27T17:53:11;101166.41;;;13.19;48.70
35224;BME280;21367;51.930;8.112;2023-04-27T17:58:17;101158.25;;;13.53;47.99
35224;BME280;21367;51.930;8.112;2023-04-27T18:03:21;101157.03;;;13.21;48.03
35224;BME280;21367;51.930;8.112;2023-04-27T18:08:26;101155.50;;;13.04;50.02
35224;BME280;21367;51.930;8.112;2023-04-27T18:13:32;101144.28;;;12.39;49.54
35224;BME280;21367;51.930;8.112;2023-04-27T18:18:36;101139.50;;;12.27;50.04
35224;BME280;21367;51.930;8.112;2023-04-27T18:23:41;101145.84;;;12.35;50.27
35224;BME280;21367;51.930;8.112;2023-04-27T18:28:47;101152.25;;;11.66;50.06
35224;BME280;21367;51.930;8.112;2023-04-27T18:33:51;101151.63;;;11.89;51.95
35224;BME280;21367;51.930;8.112;2023-04-27T18:38:55;101143.78;;;11.11;52.10
35224;BME280;21367;51.930;8.112;2023-04-27T18:44:05;101148.47;;;10.49;54.16
35224;BME280;21367;51.930;8.112;2023-04-27T18:49:08;101148.03;;;11.11;53.56
35224;BME280;21367;51.930;8.112;2023-04-27T18:54:12;101150.06;;;11.18;52.88
35224;BME280;21367;51.930;8.112;2023-04-27T18:59:18;101156.47;;;10.55;53.59
35224;BME280;21367;51.930;8.112;2023-04-27T19:04:21;101147.66;;;9.66;55.51
35224;BME280;21367;51.930;8.112;2023-04-27T19:09:25;101143.47;;;10.01;55.59
35224;BME280;21367;51.930;8.112;2023-04-27T19:14:31;101155.13;;;9.78;56.04
35224;BME280;21367;51.930;8.112;2023-04-27T19:19:34;101158.81;;;10.16;55.89
35224;BME280;21367;51.930;8.112;2023-04-27T19:24:38;101165.53;;;10.47;55.88
35224;BME280;21367;51.930;8.112;2023-04-27T19:29:51;101151.59;;;9.76;56.02
35224;BME280;21367;51.930;8.112;2023-04-27T19:34:55;101149.19;;;9.46;56.10
35224;BME280;21367;51.930;8.112;2023-04-27T19:39:59;101151.28;;;9.70;55.85
35224;BME280;21367;51.930;8.112;2023-04-27T19:45:06;101153.50;;;9.47;55.75
35224;BME280;21367;51.930;8.112;2023-04-27T19:50:10;101144.22;;;9.66;57.05
35224;BME280;21367;51.930;8.112;2023-04-27T19:55:14;101145.00;;;9.32;57.28
35224;BME280;21367;51.930;8.112;2023-04-27T20:00:20;101138.44;;;8.60;58.80
35224;BME280;21367;51.930;8.112;2023-04-27T20:05:24;101130.56;;;8.57;59.06
35224;BME280;21367;51.930;8.112;2023-04-27T20:10:27;101138.31;;;8.73;59.51
35224;BME280;21367;51.930;8.112;2023-04-27T20:15:34;101124.13;;;9.10;58.94
35224;BME280;21367;51.930;8.112;2023-04-27T20:20:37;101114.03;;;8.67;59.22
35224;BME280;21367;51.930;8.112;2023-04-27T20:25:41;101113.31;;;8.84;59.56
35224;BME280;21367;51.930;8.112;2023-04-27T20:30:47;101116.06;;;8.72;58.89
35224;BME280;21367;51.930;8.112;2023-04-27T20:35:50;101097.72;;;8.50;59.91
35224;BME280;21367;51.930;8.112;2023-04-27T20:40:56;101093.13;;;8.44;60.24
35224;BME280;21367;51.930;8.112;2023-04-27T20:46:03;101086.16;;;8.42;60.18
35224;BME280;21367;51.930;8.112;2023-04-27T20:51:06;101089.13;;;8.64;59.89
35224;BME280;21367;51.930;8.112;2023-04-27T20:56:10;101076.78;;;8.57;59.24
35224;BME280;21367;51.930;8.112;2023-04-27T21:01:17;101083.31;;;8.22;61.07
35224;BME280;21367;51.930;8.112;2023-04-27T21:06:20;101080.72;;;8.67;59.90
35224;BME280;21367;51.930;8.112;2023-04-27T21:11:23;101088.69;;;8.27;60.80
35224;BME280;21367;51.930;8.112;2023-04-27T21:16:30;101084.78;;;8.33;61.47
35224;BME280;21367;51.930;8.112;2023-04-27T21:21:33;101075.00;;;8.26;61.45
35224;BME280;21367;51.930;8.112;2023-04-27T21:26:37;101068.31;;;8.14;61.46
35224;BME280;21367;51.930;8.112;2023-04-27T21:31:44;101066.09;;;8.34;61.10
35224;BME280;21367;51.930;8.112;2023-04-27T21:36:47;101055.09;;;8.67;60.86
35224;BME280;21367;51.930;8.112;2023-04-27T21:41:51;101059.03;;;8.16;61.76
35224;BME280;21367;51.930;8.112;2023-04-27T21:46:57;101048.97;;;8.04;61.90
35224;BME280;21367;51.930;8.112;2023-04-27T21:52:01;101041.91;;;8.15;62.37
35224;BME280;21367;51.930;8.112;2023-04-27T21:57:20;101032.28;;;8.25;61.98
35224;BME280;21367;51.930;8.112;2023-04-27T22:02:26;101014.91;;;8.20;62.04
35224;BME280;21367;51.930;8.112;2023-04-27T22:07:31;101009.78;;;8.05;62.63
35224;BME280;21367;51.930;8.112;2023-04-27T22:12:35;101004.06;;;8.09;62.65
35224;BME280;21367;51.930;8.112;2023-04-27T22:17:41;100996.72;;;8.15;61.46
35224;BME280;21367;51.930;8.112;2023-04-27T22:22:44;100991.78;;;8.18;62.17
35224;BME280;21367;51.930;8.112;2023-04-27T22:27:48;100971.47;;;8.21;62.15
35224;BME280;21367;51.930;8.112;2023-04-27T22:32:54;100966.19;;;8.18;62.85
35224;BME280;21367;51.930;8.112;2023-04-27T22:37:58;100962.63;;;8.31;62.53
35224;BME280;21367;51.930;8.112;2023-04-27T22:43:01;100952.47;;;8.18;62.75
35224;BME280;21367;51.930;8.112;2023-04-27T22:48:08;100949.63;;;7.97;63.21
35224;BME280;21367;51.930;8.112;2023-04-27T22:53:12;100942.81;;;7.82;63.56
35224;BME280;21367;51.930;8.112;2023-04-27T22:58:15;100938.53;;;8.27;63.08
35224;BME280;21367;51.930;8.112;2023-04-27T23:03:21;100939.63;;;8.01;63.79
35224;BME280;21367;51.930;8.112;2023-04-27T23:08:25;100938.94;;;8.35;62.87
35224;BME280;21367;51.930;8.112;2023-04-27T23:13:29;100934.66;;;8.19;63.24
35224;BME280;21367;51.930;8.112;2023-04-27T23:18:35;100920.81;;;8.01;64.01
35224;BME280;21367;51.930;8.112;2023-04-27T23:23:39;100905.94;;;8.25;63.47
35224;BME280;21367;51.930;8.112;2023-04-27T23:28:43;100902.44;;;8.08;63.50
35224;BME280;21367;51.930;8.112;2023-04-27T23:33:50;100901.19;;;7.70;65.57
35224;BME280;21367;51.930;8.112;2023-04-27T23:38:53;100897.72;;;7.99;65.02
35224;BME280;21367;51.930;8.112;2023-04-27T23:43:56;100894.31;;;7.84;63.71
35224;BME280;21367;51.930;8.112;2023-04-27T23:49:02;100891.94;;;7.87;64.07
35224;BME280;21367;51.930;8.112;2023-04-27T23:54:06;100879.13;;;7.87;64.44
35224;BME280;21367;51.930;8.112;2023-04-27T23:59:09;100870.88;;;7.93;63.65
